sensor_id;sensor_type;location;lat;lon;timestamp;P1;durP1;ratioP1;P2;durP2;ratioP2
6723;SDS011;3399;52.530;13.304;2022-11-18T00:00:49;23.50;;;19.53;;
6723;SDS011;3399;52.530;13.304;2022-11-18T00:03:16;22.50;;;18.30;;
6723;SDS011;3399;52.530;13.304;2022-11-18T00:05:42;26.70;;;19.07;;
6723;SDS011;3399;52.530;13.304;2022-11-18T00:08:07;23.80;;;18.37;;
6723;SDS011;3399;52.530;13.304;2022-11-18T00:10:36;24.53;;;19.47;;
6723;SDS011;3399;52.530;13.304;2022-11-18T00:13:02;23.27;;;18.37;;
6723;SDS011;3399;52.530;13.304;2022-11-18T00:15:47;24.47;;;18.10;;
6723;SDS011;3399;52.530;13.304;2022-11-18T00:18:12;22.87;;;18.30;;
6723;SDS011;3399;52.530;13.304;2022-11-18T00:20:38;22.57;;;17.83;;
6723;SDS011;3399;52.530;13.304;2022-11-18T00:23:03;22.17;;;18.83;;
6723;SDS011;3399;52.530;13.304;2022-11-18T00:25:29;25.70;;;18.63;;
6723;SDS011;3399;52.530;13.304;2022-11-18T00:27:54;22.73;;;18.43;;
6723;SDS011;3399;52.530;13.304;2022-11-18T00:30:20;20.90;;;17.10;;
6723;SDS011;3399;52.530;13.304;2022-11-18T00:32:46;24.37;;;18.30;;
6723;SDS011;3399;52.530;13.304;2022-11-18T00:35:11;22.40;;;18.23;;
6723;SDS011;3399;52.530;13.304;2022-11-18T00:37:37;21.57;;;17.07;;
6723;SDS011;3399;52.530;13.304;2022-11-18T00:40:02;23.07;;;16.93;;
6723;SDS011;3399;52.530;13.304;2022-11-18T00:42:28;19.30;;;16.80;;
6723;SDS011;3399;52.530;13.304;2022-11-18T00:45:12;26.40;;;17.17;;
6723;SDS011;3399;52.530;13.304;2022-11-18T00:47:38;22.07;;;17.67;;
6723;SDS011;3399;52.530;13.304;2022-11-18T00:50:03;22.00;;;17.50;;
6723;SDS011;3399;52.530;13.304;2022-11-18T00:52:29;22.60;;;16.93;;
6723;SDS011;3399;52.530;13.304;2022-11-18T00:54:54;22.13;;;17.93;;
6723;SDS011;3399;52.530;13.304;2022-11-18T00:57:20;20.07;;;16.67;;
6723;SDS011;3399;52.530;13.304;2022-11-18T00:59:45;20.37;;;16.90;;
6723;SDS011;3399;52.530;13.304;2022-11-18T01:02:11;19.60;;;16.77;;
6723;SDS011;3399;52.530;13.304;2022-11-18T01:04:36;21.10;;;16.73;;
6723;SDS011;3399;52.530;13.304;2022-11-18T01:07:02;21.60;;;17.03;;
6723;SDS011;3399;52.530;13.304;2022-11-18T01:09:27;23.37;;;18.50;;
6723;SDS011;3399;52.530;13.304;2022-11-18T01:11:53;23.10;;;17.80;;
6723;SDS011;3399;52.530;13.304;2022-11-18T01:14:37;20.67;;;16.07;;
6723;SDS011;3399;52.530;13.304;2022-11-18T01:17:02;21.03;;;17.20;;
6723;SDS011;3399;52.530;13.304;2022-11-18T01:19:28;17.23;;;15.33;;
6723;SDS011;3399;52.530;13.304;2022-11-18T01:21:54;17.90;;;15.70;;
6723;SDS011;3399;52.530;13.304;2022-11-18T01:24:20;20.30;;;16.23;;
6723;SDS011;3399;52.530;13.304;2022-11-18T01:26:46;18.63;;;15.13;;
6723;SDS011;3399;52.530;13.304;2022-11-18T01:29:12;18.53;;;15.67;;
6723;SDS011;3399;52.530;13.304;2022-11-18T01:31:38;21.53;;;17.03;;
6723;SDS011;3399;52.530;13.304;2022-11-18T01:34:04;20.37;;;15.63;;
6723;SDS011;3399;52.530;13.304;2022-11-18T01:36:29;19.43;;;16.73;;
6723;SDS011;3399;52.530;13.304;2022-11-18T01:38:55;20.80;;;16.70;;
6723;SDS011;3399;52.530;13.304;2022-11-18T01:41:22;20.43;;;17.47;;
6723;SDS011;3399;52.530;13.304;2022-11-18T01:43:50;19.23;;;15.70;;
6723;SDS011;3399;52.530;13.304;2022-11-18T01:46:18;18.97;;;15.80;;
6723;SDS011;3399;52.530;13.304;2022-11-18T01:48:45;17.17;;;15.37;;
6723;SDS011;3399;52.530;13.304;2022-11-18T01:51:15;17.53;;;15.60;;
6723;SDS011;3399;52.530;13.304;2022-11-18T01:53:56;17.53;;;15.47;;
6723;SDS011;3399;52.530;13.304;2022-11-18T01:56:27;17.67;;;15.17;;
6723;SDS011;3399;52.530;13.304;2022-11-18T01:59:07;16.67;;;14.90;;
6723;SDS011;3399;52.530;13.304;2022-11-18T02:01:36;19.20;;;16.40;;
6723;SDS011;3399;52.530;13.304;2022-11-18T02:04:02;20.97;;;16.23;;
6723;SDS011;3399;52.530;13.304;2022-11-18T02:06:27;18.00;;;16.10;;
6723;SDS011;3399;52.530;13.304;2022-11-18T02:08:53;17.77;;;15.80;;
6723;SDS011;3399;52.530;13.304;2022-11-18T02:11:19;19.50;;;16.50;;
6723;SDS011;3399;52.530;13.304;2022-11-18T02:14:04;18.53;;;15.60;;
6723;SDS011;3399;52.530;13.304;2022-11-18T02:16:38;17.57;;;15.67;;
6723;SDS011;3399;52.530;13.304;2022-11-18T02:19:30;19.93;;;16.23;;
6723;SDS011;3399;52.530;13.304;2022-11-18T02:27:21;18.60;;;16.60;;
6723;SDS011;3399;52.530;13.304;2022-11-18T02:30:09;18.30;;;16.37;;
6723;SDS011;3399;52.530;13.304;2022-11-18T02:35:15;22.03;;;17.77;;
6723;SDS011;3399;52.530;13.304;2022-11-18T02:38:12;21.23;;;16.80;;
6723;SDS011;3399;52.530;13.304;2022-11-18T02:40:44;23.37;;;16.83;;
6723;SDS011;3399;52.530;13.304;2022-11-18T02:43:15;21.07;;;16.50;;
6723;SDS011;3399;52.530;13.304;2022-11-18T02:45:47;18.47;;;16.17;;
6723;SDS011;3399;52.530;13.304;2022-11-18T02:48:15;18.90;;;16.60;;
6723;SDS011;3399;52.530;13.304;2022-11-18T02:50:44;20.43;;;16.53;;
6723;SDS011;3399;52.530;13.304;2022-11-18T02:53:13;18.93;;;16.77;;
6723;SDS011;3399;52.530;13.304;2022-11-18T02:55:42;17.80;;;15.90;;
6723;SDS011;3399;52.530;13.304;2022-11-18T02:58:09;19.13;;;15.90;;
6723;SDS011;3399;52.530;13.304;2022-11-18T03:00:37;20.50;;;17.37;;
6723;SDS011;3399;52.530;13.304;2022-11-18T03:05:56;19.03;;;15.67;;
6723;SDS011;3399;52.530;13.304;2022-11-18T03:08:29;19.23;;;16.27;;
6723;SDS011;3399;52.530;13.304;2022-11-18T03:11:13;20.33;;;17.33;;
6723;SDS011;3399;52.530;13.304;2022-11-18T03:22:27;23.43;;;18.43;;
6723;SDS011;3399;52.530;13.304;2022-11-18T03:25:34;21.67;;;18.07;;
6723;SDS011;3399;52.530;13.304;2022-11-18T03:28:16;22.23;;;18.63;;
6723;SDS011;3399;52.530;13.304;2022-11-18T03:31:06;19.77;;;17.30;;
6723;SDS011;3399;52.530;13.304;2022-11-18T03:33:47;23.53;;;18.90;;
6723;SDS011;3399;52.530;13.304;2022-11-18T03:36:18;23.27;;;18.97;;
6723;SDS011;3399;52.530;13.304;2022-11-18T03:38:48;26.47;;;19.70;;
6723;SDS011;3399;52.530;13.304;2022-11-18T03:41:17;25.80;;;20.37;;
6723;SDS011;3399;52.530;13.304;2022-11-18T03:43:47;22.20;;;19.57;;
6723;SDS011;3399;52.530;13.304;2022-11-18T03:46:22;25.07;;;18.93;;
6723;SDS011;3399;52.530;13.304;2022-11-18T03:49:01;22.03;;;19.37;;
6723;SDS011;3399;52.530;13.304;2022-11-18T03:51:32;23.23;;;20.23;;
6723;SDS011;3399;52.530;13.304;2022-11-18T03:54:15;26.60;;;21.80;;
6723;SDS011;3399;52.530;13.304;2022-11-18T03:56:46;27.97;;;21.53;;
6723;SDS011;3399;52.530;13.304;2022-11-18T03:59:19;24.43;;;20.43;;
6723;SDS011;3399;52.530;13.304;2022-11-18T04:01:55;32.03;;;21.27;;
6723;SDS011;3399;52.530;13.304;2022-11-18T04:04:27;27.73;;;22.57;;
6723;SDS011;3399;52.530;13.304;2022-11-18T04:07:08;28.17;;;22.23;;
6723;SDS011;3399;52.530;13.304;2022-11-18T04:09:51;27.17;;;20.13;;
6723;SDS011;3399;52.530;13.304;2022-11-18T04:12:21;26.50;;;21.47;;
6723;SDS011;3399;52.530;13.304;2022-11-18T04:14:49;27.63;;;22.03;;
6723;SDS011;3399;52.530;13.304;2022-11-18T04:17:20;29.57;;;22.30;;
6723;SDS011;3399;52.530;13.304;2022-11-18T04:19:47;29.67;;;22.53;;
6723;SDS011;3399;52.530;13.304;2022-11-18T04:22:13;29.70;;;22.17;;
6723;SDS011;3399;52.530;13.304;2022-11-18T04:24:39;30.47;;;23.27;;
6723;SDS011;3399;52.530;13.304;2022-11-18T04:27:05;31.73;;;24.53;;
6723;SDS011;3399;52.530;13.304;2022-11-18T04:29:31;34.10;;;23.57;;
6723;SDS011;3399;52.530;13.304;2022-11-18T04:31:58;37.70;;;26.17;;
6723;SDS011;3399;52.530;13.304;2022-11-18T04:34:24;38.00;;;26.33;;
6723;SDS011;3399;52.530;13.304;2022-11-18T04:36:49;41.13;;;26.83;;
6723;SDS011;3399;52.530;13.304;2022-11-18T04:39:15;34.87;;;26.67;;
6723;SDS011;3399;52.530;13.304;2022-11-18T04:41:42;34.70;;;26.93;;
6723;SDS011;3399;52.530;13.304;2022-11-18T04:44:30;36.90;;;26.60;;
6723;SDS011;3399;52.530;13.304;2022-11-18T04:46:57;37.43;;;28.60;;
6723;SDS011;3399;52.530;13.304;2022-11-18T04:49:27;38.63;;;28.63;;
6723;SDS011;3399;52.530;13.304;2022-11-18T04:51:54;38.57;;;27.90;;
6723;SDS011;3399;52.530;13.304;2022-11-18T04:54:20;40.50;;;28.80;;
6723;SDS011;3399;52.530;13.304;2022-11-18T04:56:47;38.43;;;28.43;;
6723;SDS011;3399;52.530;13.304;2022-11-18T04:59:13;39.07;;;28.67;;
6723;SDS011;3399;52.530;13.304;2022-11-18T05:01:41;37.07;;;28.20;;
6723;SDS011;3399;52.530;13.304;2022-11-18T05:04:06;35.77;;;27.23;;
6723;SDS011;3399;52.530;13.304;2022-11-18T05:06:36;39.60;;;28.93;;
6723;SDS011;3399;52.530;13.304;2022-11-18T05:09:01;40.87;;;27.70;;
6723;SDS011;3399;52.530;13.304;2022-11-18T05:11:27;39.23;;;28.73;;
6723;SDS011;3399;52.530;13.304;2022-11-18T05:14:11;41.57;;;29.07;;
6723;SDS011;3399;52.530;13.304;2022-11-18T05:16:37;42.70;;;28.70;;
6723;SDS011;3399;52.530;13.304;2022-11-18T05:19:03;41.70;;;28.53;;
6723;SDS011;3399;52.530;13.304;2022-11-18T05:21:30;41.93;;;28.77;;
6723;SDS011;3399;52.530;13.304;2022-11-18T05:23:55;38.90;;;27.70;;
6723;SDS011;3399;52.530;13.304;2022-11-18T05:26:23;38.73;;;27.77;;
6723;SDS011;3399;52.530;13.304;2022-11-18T05:28:48;42.83;;;28.13;;
6723;SDS011;3399;52.530;13.304;2022-11-18T05:31:14;37.93;;;26.83;;
6723;SDS011;3399;52.530;13.304;2022-11-18T05:33:40;42.90;;;29.23;;
6723;SDS011;3399;52.530;13.304;2022-11-18T05:36:11;39.83;;;27.90;;
6723;SDS011;3399;52.530;13.304;2022-11-18T05:38:44;41.83;;;28.67;;
6723;SDS011;3399;52.530;13.304;2022-11-18T05:41:10;40.27;;;28.67;;
6723;SDS011;3399;52.530;13.304;2022-11-18T05:43:59;41.70;;;28.00;;
6723;SDS011;3399;52.530;13.304;2022-11-18T05:46:25;44.53;;;28.90;;
6723;SDS011;3399;52.530;13.304;2022-11-18T05:48:52;36.87;;;27.23;;
6723;SDS011;3399;52.530;13.304;2022-11-18T05:51:17;36.97;;;25.70;;
6723;SDS011;3399;52.530;13.304;2022-11-18T05:53:43;31.87;;;23.83;;
6723;SDS011;3399;52.530;13.304;2022-11-18T05:58:52;32.00;;;23.63;;
6723;SDS011;3399;52.530;13.304;2022-11-18T06:01:21;34.03;;;22.13;;
6723;SDS011;3399;52.530;13.304;2022-11-18T06:03:51;30.17;;;22.50;;
6723;SDS011;3399;52.530;13.304;2022-11-18T06:06:17;32.57;;;20.80;;
6723;SDS011;3399;52.530;13.304;2022-11-18T06:08:48;28.57;;;21.47;;
6723;SDS011;3399;52.530;13.304;2022-11-18T06:11:18;27.43;;;20.83;;
6723;SDS011;3399;52.530;13.304;2022-11-18T06:13:49;27.17;;;20.70;;
6723;SDS011;3399;52.530;13.304;2022-11-18T06:16:19;24.90;;;20.50;;
6723;SDS011;3399;52.530;13.304;2022-11-18T06:18:48;25.67;;;19.20;;
6723;SDS011;3399;52.530;13.304;2022-11-18T06:21:13;30.30;;;21.77;;
6723;SDS011;3399;52.530;13.304;2022-11-18T06:23:39;24.10;;;20.23;;
6723;SDS011;3399;52.530;13.304;2022-11-18T06:26:06;23.53;;;19.40;;
6723;SDS011;3399;52.530;13.304;2022-11-18T06:28:33;25.87;;;18.40;;
6723;SDS011;3399;52.530;13.304;2022-11-18T06:30:58;25.07;;;20.07;;
6723;SDS011;3399;52.530;13.304;2022-11-18T06:33:24;26.47;;;19.33;;
6723;SDS011;3399;52.530;13.304;2022-11-18T06:35:49;26.33;;;18.80;;
6723;SDS011;3399;52.530;13.304;2022-11-18T06:38:15;25.13;;;18.90;;
6723;SDS011;3399;52.530;13.304;2022-11-18T06:40:40;23.90;;;18.67;;
6723;SDS011;3399;52.530;13.304;2022-11-18T06:43:09;23.63;;;17.97;;
6723;SDS011;3399;52.530;13.304;2022-11-18T06:45:57;25.07;;;17.27;;
6723;SDS011;3399;52.530;13.304;2022-11-18T06:48:42;24.40;;;18.33;;
6723;SDS011;3399;52.530;13.304;2022-11-18T06:51:07;21.47;;;17.70;;
6723;SDS011;3399;52.530;13.304;2022-11-18T06:53:33;23.10;;;18.37;;
6723;SDS011;3399;52.530;13.304;2022-11-18T06:56:02;25.93;;;19.27;;
6723;SDS011;3399;52.530;13.304;2022-11-18T06:58:32;22.37;;;16.23;;
6723;SDS011;3399;52.530;13.304;2022-11-18T07:01:08;22.77;;;17.20;;
6723;SDS011;3399;52.530;13.304;2022-11-18T07:03:41;22.57;;;16.40;;
6723;SDS011;3399;52.530;13.304;2022-11-18T07:06:08;21.80;;;16.00;;
6723;SDS011;3399;52.530;13.304;2022-11-18T07:08:35;20.67;;;15.27;;
6723;SDS011;3399;52.530;13.304;2022-11-18T07:11:02;22.03;;;17.30;;
6723;SDS011;3399;52.530;13.304;2022-11-18T07:13:32;24.13;;;17.03;;
6723;SDS011;3399;52.530;13.304;2022-11-18T07:16:04;20.80;;;16.47;;
6723;SDS011;3399;52.530;13.304;2022-11-18T07:18:31;21.30;;;16.90;;
6723;SDS011;3399;52.530;13.304;2022-11-18T07:21:00;22.60;;;16.37;;
6723;SDS011;3399;52.530;13.304;2022-11-18T07:23:27;21.00;;;16.07;;
6723;SDS011;3399;52.530;13.304;2022-11-18T07:25:54;21.67;;;17.13;;
6723;SDS011;3399;52.530;13.304;2022-11-18T07:28:19;20.20;;;16.80;;
6723;SDS011;3399;52.530;13.304;2022-11-18T07:30:45;21.30;;;17.87;;
6723;SDS011;3399;52.530;13.304;2022-11-18T07:33:11;22.70;;;16.33;;
6723;SDS011;3399;52.530;13.304;2022-11-18T07:35:36;19.57;;;15.63;;
6723;SDS011;3399;52.530;13.304;2022-11-18T07:38:02;21.63;;;16.50;;
6723;SDS011;3399;52.530;13.304;2022-11-18T07:40:27;19.63;;;16.37;;
6723;SDS011;3399;52.530;13.304;2022-11-18T07:42:52;23.00;;;17.13;;
6723;SDS011;3399;52.530;13.304;2022-11-18T07:45:18;22.53;;;16.03;;
6723;SDS011;3399;52.530;13.304;2022-11-18T07:47:43;18.67;;;15.13;;
6723;SDS011;3399;52.530;13.304;2022-11-18T07:50:09;19.57;;;15.60;;
6723;SDS011;3399;52.530;13.304;2022-11-18T07:52:34;21.37;;;17.23;;
6723;SDS011;3399;52.530;13.304;2022-11-18T07:55:00;23.93;;;15.13;;
6723;SDS011;3399;52.530;13.304;2022-11-18T07:57:25;24.47;;;18.10;;
6723;SDS011;3399;52.530;13.304;2022-11-18T07:59:51;19.50;;;15.87;;
6723;SDS011;3399;52.530;13.304;2022-11-18T08:02:16;20.07;;;16.40;;
6723;SDS011;3399;52.530;13.304;2022-11-18T08:04:42;21.70;;;16.30;;
6723;SDS011;3399;52.530;13.304;2022-11-18T08:07:10;20.03;;;16.53;;
6723;SDS011;3399;52.530;13.304;2022-11-18T08:09:36;20.60;;;16.33;;
6723;SDS011;3399;52.530;13.304;2022-11-18T08:12:01;21.47;;;16.37;;
6723;SDS011;3399;52.530;13.304;2022-11-18T08:14:27;23.90;;;17.77;;
6723;SDS011;3399;52.530;13.304;2022-11-18T08:16:53;23.60;;;17.33;;
6723;SDS011;3399;52.530;13.304;2022-11-18T08:19:19;25.63;;;18.20;;
6723;SDS011;3399;52.530;13.304;2022-11-18T08:21:44;19.97;;;15.97;;
6723;SDS011;3399;52.530;13.304;2022-11-18T08:24:10;20.13;;;17.23;;
6723;SDS011;3399;52.530;13.304;2022-11-18T08:26:35;21.90;;;16.33;;
6723;SDS011;3399;52.530;13.304;2022-11-18T08:29:01;22.37;;;17.43;;
6723;SDS011;3399;52.530;13.304;2022-11-18T08:31:27;22.87;;;16.83;;
6723;SDS011;3399;52.530;13.304;2022-11-18T08:33:54;22.87;;;17.63;;
6723;SDS011;3399;52.530;13.304;2022-11-18T08:36:21;19.07;;;15.90;;
6723;SDS011;3399;52.530;13.304;2022-11-18T08:38:49;20.57;;;17.50;;
6723;SDS011;3399;52.530;13.304;2022-11-18T08:41:16;18.70;;;16.70;;
6723;SDS011;3399;52.530;13.304;2022-11-18T08:43:44;19.33;;;17.23;;
6723;SDS011;3399;52.530;13.304;2022-11-18T08:46:09;22.97;;;16.17;;
6723;SDS011;3399;52.530;13.304;2022-11-18T08:48:35;20.90;;;15.43;;
6723;SDS011;3399;52.530;13.304;2022-11-18T08:51:00;19.83;;;15.57;;
6723;SDS011;3399;52.530;13.304;2022-11-18T08:53:26;17.30;;;14.90;;
6723;SDS011;3399;52.530;13.304;2022-11-18T08:55:55;23.17;;;17.07;;
6723;SDS011;3399;52.530;13.304;2022-11-18T08:58:22;18.90;;;14.63;;
6723;SDS011;3399;52.530;13.304;2022-11-18T09:00:47;17.40;;;14.13;;
6723;SDS011;3399;52.530;13.304;2022-11-18T09:03:13;16.80;;;14.37;;
6723;SDS011;3399;52.530;13.304;2022-11-18T09:05:38;19.37;;;14.63;;
6723;SDS011;3399;52.530;13.304;2022-11-18T09:08:04;18.70;;;14.27;;
6723;SDS011;3399;52.530;13.304;2022-11-18T09:10:30;23.27;;;15.43;;
6723;SDS011;3399;52.530;13.304;2022-11-18T09:12:55;19.30;;;15.60;;
6723;SDS011;3399;52.530;13.304;2022-11-18T09:15:20;20.40;;;14.77;;
6723;SDS011;3399;52.530;13.304;2022-11-18T09:17:48;18.57;;;15.33;;
6723;SDS011;3399;52.530;13.304;2022-11-18T09:20:14;18.93;;;14.83;;
6723;SDS011;3399;52.530;13.304;2022-11-18T09:22:41;27.00;;;15.57;;
6723;SDS011;3399;52.530;13.304;2022-11-18T09:25:06;19.67;;;16.40;;
6723;SDS011;3399;52.530;13.304;2022-11-18T09:27:32;17.73;;;14.30;;
6723;SDS011;3399;52.530;13.304;2022-11-18T09:29:58;20.53;;;14.03;;
6723;SDS011;3399;52.530;13.304;2022-11-18T09:32:23;16.97;;;13.80;;
6723;SDS011;3399;52.530;13.304;2022-11-18T09:34:49;16.83;;;13.33;;
6723;SDS011;3399;52.530;13.304;2022-11-18T09:37:14;16.50;;;13.23;;
6723;SDS011;3399;52.530;13.304;2022-11-18T09:39:39;21.83;;;12.70;;
6723;SDS011;3399;52.530;13.304;2022-11-18T09:47:24;21.93;;;15.53;;
6723;SDS011;3399;52.530;13.304;2022-11-18T09:50:05;17.23;;;13.13;;
6723;SDS011;3399;52.530;13.304;2022-11-18T09:52:38;18.07;;;12.67;;
6723;SDS011;3399;52.530;13.304;2022-11-18T09:55:11;20.07;;;14.10;;
6723;SDS011;3399;52.530;13.304;2022-11-18T09:57:49;20.47;;;14.43;;
6723;SDS011;3399;52.530;13.304;2022-11-18T10:00:20;17.90;;;14.30;;
6723;SDS011;3399;52.530;13.304;2022-11-18T10:02:51;12.50;;;10.93;;
6723;SDS011;3399;52.530;13.304;2022-11-18T10:05:32;12.60;;;10.10;;
6723;SDS011;3399;52.530;13.304;2022-11-18T10:11:09;10.80;;;8.37;;
6723;SDS011;3399;52.530;13.304;2022-11-18T10:14:00;10.87;;;8.17;;
6723;SDS011;3399;52.530;13.304;2022-11-18T10:19:46;7.13;;;6.53;;
6723;SDS011;3399;52.530;13.304;2022-11-18T10:22:45;8.17;;;7.30;;
6723;SDS011;3399;52.530;13.304;2022-11-18T10:25:16;7.40;;;6.60;;
6723;SDS011;3399;52.530;13.304;2022-11-18T10:27:43;9.67;;;7.00;;
6723;SDS011;3399;52.530;13.304;2022-11-18T10:30:11;8.07;;;7.27;;
6723;SDS011;3399;52.530;13.304;2022-11-18T10:32:55;7.47;;;6.77;;
6723;SDS011;3399;52.530;13.304;2022-11-18T10:35:28;7.27;;;6.57;;
6723;SDS011;3399;52.530;13.304;2022-11-18T10:38:01;8.30;;;6.60;;
6723;SDS011;3399;52.530;13.304;2022-11-18T10:40:30;7.87;;;6.30;;
6723;SDS011;3399;52.530;13.304;2022-11-18T10:42:57;11.00;;;6.90;;
6723;SDS011;3399;52.530;13.304;2022-11-18T10:47:57;7.73;;;6.57;;
6723;SDS011;3399;52.530;13.304;2022-11-18T10:50:51;6.27;;;5.60;;
6723;SDS011;3399;52.530;13.304;2022-11-18T10:53:28;7.80;;;6.67;;
6723;SDS011;3399;52.530;13.304;2022-11-18T10:55:56;7.13;;;6.40;;
6723;SDS011;3399;52.530;13.304;2022-11-18T10:58:30;10.90;;;7.43;;
6723;SDS011;3399;52.530;13.304;2022-11-18T11:01:13;9.30;;;7.20;;
6723;SDS011;3399;52.530;13.304;2022-11-18T11:03:53;7.10;;;6.00;;
6723;SDS011;3399;52.530;13.304;2022-11-18T11:06:37;7.83;;;7.03;;
6723;SDS011;3399;52.530;13.304;2022-11-18T11:09:04;6.87;;;6.13;;
6723;SDS011;3399;52.530;13.304;2022-11-18T11:14:48;9.70;;;7.53;;
6723;SDS011;3399;52.530;13.304;2022-11-18T11:17:28;10.33;;;8.13;;
6723;SDS011;3399;52.530;13.304;2022-11-18T11:20:05;9.17;;;8.17;;
6723;SDS011;3399;52.530;13.304;2022-11-18T11:22:37;9.93;;;7.97;;
6723;SDS011;3399;52.530;13.304;2022-11-18T11:25:05;9.70;;;8.70;;
6723;SDS011;3399;52.530;13.304;2022-11-18T11:27:48;8.73;;;7.67;;
6723;SDS011;3399;52.530;13.304;2022-11-18T11:30:24;9.03;;;7.60;;
6723;SDS011;3399;52.530;13.304;2022-11-18T11:33:00;10.80;;;8.37;;
6723;SDS011;3399;52.530;13.304;2022-11-18T11:38:19;8.63;;;7.13;;
6723;SDS011;3399;52.530;13.304;2022-11-18T11:41:05;11.37;;;10.00;;
6723;SDS011;3399;52.530;13.304;2022-11-18T11:46:38;10.30;;;8.00;;
6723;SDS011;3399;52.530;13.304;2022-11-18T11:49:14;8.63;;;7.67;;
6723;SDS011;3399;52.530;13.304;2022-11-18T11:54:22;10.03;;;7.77;;
6723;SDS011;3399;52.530;13.304;2022-11-18T11:57:09;9.93;;;7.70;;
6723;SDS011;3399;52.530;13.304;2022-11-18T11:59:51;7.83;;;6.43;;
6723;SDS011;3399;52.530;13.304;2022-11-18T12:02:31;7.87;;;7.07;;
6723;SDS011;3399;52.530;13.304;2022-11-18T12:05:25;7.73;;;6.93;;
6723;SDS011;3399;52.530;13.304;2022-11-18T12:08:00;8.73;;;7.57;;
6723;SDS011;3399;52.530;13.304;2022-11-18T12:10:29;9.50;;;7.67;;
6723;SDS011;3399;52.530;13.304;2022-11-18T12:16:23;11.60;;;8.07;;
6723;SDS011;3399;52.530;13.304;2022-11-18T12:19:19;10.17;;;7.53;;
6723;SDS011;3399;52.530;13.304;2022-11-18T12:32:23;7.50;;;6.60;;
6723;SDS011;3399;52.530;13.304;2022-11-18T12:34:57;6.83;;;6.10;;
6723;SDS011;3399;52.530;13.304;2022-11-18T12:42:35;6.77;;;6.00;;
6723;SDS011;3399;52.530;13.304;2022-11-18T12:45:56;7.73;;;6.20;;
6723;SDS011;3399;52.530;13.304;2022-11-18T12:50:51;7.07;;;5.43;;
6723;SDS011;3399;52.530;13.304;2022-11-18T12:53:27;7.53;;;5.73;;
6723;SDS011;3399;52.530;13.304;2022-11-18T12:55:58;5.90;;;5.30;;
6723;SDS011;3399;52.530;13.304;2022-11-18T12:58:24;7.60;;;6.47;;
6723;SDS011;3399;52.530;13.304;2022-11-18T13:00:50;6.40;;;5.80;;
6723;SDS011;3399;52.530;13.304;2022-11-18T13:03:32;6.70;;;6.00;;
6723;SDS011;3399;52.530;13.304;2022-11-18T13:05:59;9.40;;;5.33;;
6723;SDS011;3399;52.530;13.304;2022-11-18T13:08:28;7.33;;;5.33;;
6723;SDS011;3399;52.530;13.304;2022-11-18T13:10:55;7.37;;;6.07;;
6723;SDS011;3399;52.530;13.304;2022-11-18T13:13:44;6.07;;;5.10;;
6723;SDS011;3399;52.530;13.304;2022-11-18T13:16:16;6.97;;;6.23;;
6723;SDS011;3399;52.530;13.304;2022-11-18T13:19:03;7.00;;;5.97;;
6723;SDS011;3399;52.530;13.304;2022-11-18T13:21:28;6.20;;;5.33;;
6723;SDS011;3399;52.530;13.304;2022-11-18T13:24:13;6.10;;;5.30;;
6723;SDS011;3399;52.530;13.304;2022-11-18T13:26:41;6.43;;;5.83;;
6723;SDS011;3399;52.530;13.304;2022-11-18T13:29:13;5.57;;;5.07;;
6723;SDS011;3399;52.530;13.304;2022-11-18T13:32:07;6.20;;;5.60;;
6723;SDS011;3399;52.530;13.304;2022-11-18T13:34:46;6.80;;;5.73;;
6723;SDS011;3399;52.530;13.304;2022-11-18T13:37:18;6.33;;;5.70;;
6723;SDS011;3399;52.530;13.304;2022-11-18T13:39:52;7.03;;;5.60;;
6723;SDS011;3399;52.530;13.304;2022-11-18T13:42:25;5.40;;;4.90;;
6723;SDS011;3399;52.530;13.304;2022-11-18T13:47:23;6.77;;;5.70;;
6723;SDS011;3399;52.530;13.304;2022-11-18T13:50:02;7.87;;;6.20;;
6723;SDS011;3399;52.530;13.304;2022-11-18T13:52:40;7.03;;;5.07;;
6723;SDS011;3399;52.530;13.304;2022-11-18T13:57:48;8.37;;;5.00;;
6723;SDS011;3399;52.530;13.304;2022-11-18T14:00:20;6.80;;;5.73;;
6723;SDS011;3399;52.530;13.304;2022-11-18T14:02:52;6.17;;;5.57;;
6723;SDS011;3399;52.530;13.304;2022-11-18T14:05:20;5.83;;;5.30;;
6723;SDS011;3399;52.530;13.304;2022-11-18T14:08:03;5.37;;;4.87;;
6723;SDS011;3399;52.530;13.304;2022-11-18T14:10:48;5.87;;;5.23;;
6723;SDS011;3399;52.530;13.304;2022-11-18T14:13:24;5.50;;;5.00;;
6723;SDS011;3399;52.530;13.304;2022-11-18T14:16:40;5.60;;;4.90;;
6723;SDS011;3399;52.530;13.304;2022-11-18T14:18:47;5.30;;;4.80;;
6723;SDS011;3399;52.530;13.304;2022-11-18T14:24:12;7.80;;;5.83;;
6723;SDS011;3399;52.530;13.304;2022-11-18T14:26:38;6.80;;;5.00;;
6723;SDS011;3399;52.530;13.304;2022-11-18T14:29:14;6.97;;;6.27;;
6723;SDS011;3399;52.530;13.304;2022-11-18T14:31:44;6.53;;;5.20;;
6723;SDS011;3399;52.530;13.304;2022-11-18T14:34:28;5.07;;;4.57;;
6723;SDS011;3399;52.530;13.304;2022-11-18T14:36:54;4.57;;;4.17;;
6723;SDS011;3399;52.530;13.304;2022-11-18T14:39:27;4.10;;;3.80;;
6723;SDS011;3399;52.530;13.304;2022-11-18T14:41:55;4.70;;;4.30;;
6723;SDS011;3399;52.530;13.304;2022-11-18T14:44:22;6.17;;;4.67;;
6723;SDS011;3399;52.530;13.304;2022-11-18T14:47:02;4.83;;;4.33;;
6723;SDS011;3399;52.530;13.304;2022-11-18T14:49:30;5.13;;;4.67;;
6723;SDS011;3399;52.530;13.304;2022-11-18T14:51:56;4.23;;;3.93;;
6723;SDS011;3399;52.530;13.304;2022-11-18T14:54:23;4.83;;;4.33;;
6723;SDS011;3399;52.530;13.304;2022-11-18T14:56:49;4.27;;;3.87;;
6723;SDS011;3399;52.530;13.304;2022-11-18T14:59:16;4.03;;;3.57;;
6723;SDS011;3399;52.530;13.304;2022-11-18T15:01:44;3.83;;;3.53;;
6723;SDS011;3399;52.530;13.304;2022-11-18T15:04:10;3.87;;;3.57;;
6723;SDS011;3399;52.530;13.304;2022-11-18T15:06:36;4.80;;;3.87;;
6723;SDS011;3399;52.530;13.304;2022-11-18T15:09:03;3.93;;;3.53;;
6723;SDS011;3399;52.530;13.304;2022-11-18T15:11:30;5.23;;;4.60;;
6723;SDS011;3399;52.530;13.304;2022-11-18T15:13:55;4.00;;;3.60;;
6723;SDS011;3399;52.530;13.304;2022-11-18T15:16:22;4.20;;;3.80;;
6723;SDS011;3399;52.530;13.304;2022-11-18T15:18:50;4.37;;;3.97;;
6723;SDS011;3399;52.530;13.304;2022-11-18T15:21:18;6.63;;;4.50;;
6723;SDS011;3399;52.530;13.304;2022-11-18T15:23:44;3.67;;;3.37;;
6723;SDS011;3399;52.530;13.304;2022-11-18T15:28:38;4.50;;;3.57;;
6723;SDS011;3399;52.530;13.304;2022-11-18T15:31:04;5.03;;;3.87;;
6723;SDS011;3399;52.530;13.304;2022-11-18T15:33:29;4.20;;;3.80;;
6723;SDS011;3399;52.530;13.304;2022-11-18T15:35:55;4.80;;;4.03;;
6723;SDS011;3399;52.530;13.304;2022-11-18T15:38:20;5.57;;;4.30;;
6723;SDS011;3399;52.530;13.304;2022-11-18T15:40:46;5.43;;;4.20;;
6723;SDS011;3399;52.530;13.304;2022-11-18T15:43:11;4.93;;;4.27;;
6723;SDS011;3399;52.530;13.304;2022-11-18T15:45:37;5.07;;;4.50;;
6723;SDS011;3399;52.530;13.304;2022-11-18T15:48:02;6.50;;;5.17;;
6723;SDS011;3399;52.530;13.304;2022-11-18T15:50:28;6.23;;;5.03;;
6723;SDS011;3399;52.530;13.304;2022-11-18T15:52:53;6.37;;;4.87;;
6723;SDS011;3399;52.530;13.304;2022-11-18T15:55:19;4.50;;;4.07;;
6723;SDS011;3399;52.530;13.304;2022-11-18T15:57:45;6.30;;;5.70;;
6723;SDS011;3399;52.530;13.304;2022-11-18T16:00:10;5.97;;;4.20;;
6723;SDS011;3399;52.530;13.304;2022-11-18T16:02:36;4.07;;;3.07;;
6723;SDS011;3399;52.530;13.304;2022-11-18T16:05:02;4.17;;;3.63;;
6723;SDS011;3399;52.530;13.304;2022-11-18T16:07:27;4.73;;;4.13;;
6723;SDS011;3399;52.530;13.304;2022-11-18T16:09:53;4.70;;;4.20;;
6723;SDS011;3399;52.530;13.304;2022-11-18T16:12:37;4.27;;;3.80;;
6723;SDS011;3399;52.530;13.304;2022-11-18T16:15:12;4.67;;;4.03;;
6723;SDS011;3399;52.530;13.304;2022-11-18T16:17:56;4.73;;;4.33;;
6723;SDS011;3399;52.530;13.304;2022-11-18T16:20:22;4.90;;;4.37;;
6723;SDS011;3399;52.530;13.304;2022-11-18T16:22:48;7.33;;;5.30;;